sensor_id;sensor_type;location;lat;lon;timestamp;pressure;altitude;pressure_sealevel;temperature;humidity
82476;BME280;72099;43.176;76.872;2024-03-08T00:02:00;89843.53;;;-0.72;62.66
82476;BME280;72099;43.176;76.872;2024-03-08T00:05:00;89843.72;;;-0.63;62.69
82476;BME280;72099;43.176;76.872;2024-03-08T00:08:01;89846.41;;;-0.49;61.99
82476;BME280;72099;43.176;76.872;2024-03-08T00:11:03;89843.47;;;-0.38;62.07
82476;BME280;72099;43.176;76.872;2024-03-08T00:14:04;89850.47;;;-0.43;61.78
82476;BME280;72099;43.176;76.872;2024-03-08T00:17:08;89836.38;;;-0.51;62.42
82476;BME280;72099;43.176;76.872;2024-03-08T00:20:09;89852.44;;;-0.59;62.87
82476;BME280;72099;43.176;76.872;2024-03-08T00:23:11;89844.19;;;-0.61;62.90
82476;BME280;72099;43.176;76.872;2024-03-08T00:26:12;89839.81;;;-0.61;62.80
82476;BME280;72099;43.176;76.872;2024-03-08T00:29:13;89851.41;;;-0.58;62.51
82476;BME280;72099;43.176;76.872;2024-03-08T00:32:14;89831.31;;;-0.66;63.23
82476;BME280;72099;43.176;76.872;2024-03-08T00:35:15;89834.16;;;-0.63;63.26
82476;BME280;72099;43.176;76.872;2024-03-08T00:38:16;89829.06;;;-0.73;62.89
82476;BME280;72099;43.176;76.872;2024-03-08T00:41:17;89842.94;;;-0.64;63.36
82476;BME280;72099;43.176;76.872;2024-03-08T00:44:17;89846.78;;;-0.61;63.00
82476;BME280;72099;43.176;76.872;2024-03-08T00:47:18;89843.16;;;-0.60;63.05
82476;BME280;72099;43.176;76.872;2024-03-08T00:50:19;89833.59;;;-0.60;63.21
82476;BME280;72099;43.176;76.872;2024-03-08T00:53:20;89841.91;;;-0.63;63.06
82476;BME280;72099;43.176;76.872;2024-03-08T00:56:21;89817.00;;;-0.82;63.02
82476;BME280;72099;43.176;76.872;2024-03-08T00:59:22;89847.56;;;-0.61;63.16
82476;BME280;72099;43.176;76.872;2024-03-08T01:02:23;89821.13;;;-0.81;62.84
82476;BME280;72099;43.176;76.872;2024-03-08T01:05:24;89850.50;;;-0.72;63.26
82476;BME280;72099;43.176;76.872;2024-03-08T01:08:25;89850.28;;;-0.76;62.66
82476;BME280;72099;43.176;76.872;2024-03-08T01:11:25;89847.19;;;-0.78;63.00
82476;BME280;72099;43.176;76.872;2024-03-08T01:14:28;89853.38;;;-0.79;62.70
82476;BME280;72099;43.176;76.872;2024-03-08T01:17:30;89853.13;;;-0.77;62.51
82476;BME280;72099;43.176;76.872;2024-03-08T01:20:31;89853.56;;;-0.70;63.04
82476;BME280;72099;43.176;76.872;2024-03-08T01:23:32;89844.47;;;-0.63;62.50
82476;BME280;72099;43.176;76.872;2024-03-08T01:26:36;89864.78;;;-0.51;62.59
82476;BME280;72099;43.176;76.872;2024-03-08T01:29:36;89855.97;;;-0.50;62.36
82476;BME280;72099;43.176;76.872;2024-03-08T01:32:38;89852.66;;;-0.55;62.81
82476;BME280;72099;43.176;76.872;2024-03-08T01:35:38;89867.84;;;-0.49;62.54
82476;BME280;72099;43.176;76.872;2024-03-08T01:38:44;89840.72;;;-0.75;62.49
82476;BME280;72099;43.176;76.872;2024-03-08T01:41:45;89852.03;;;-0.71;63.04
82476;BME280;72099;43.176;76.872;2024-03-08T01:44:46;89860.25;;;-0.64;62.47
82476;BME280;72099;43.176;76.872;2024-03-08T01:48:11;89875.34;;;-0.52;62.79
82476;BME280;72099;43.176;76.872;2024-03-08T01:51:12;89879.94;;;-0.44;62.65
82476;BME280;72099;43.176;76.872;2024-03-08T01:54:16;89881.44;;;-0.38;62.71
82476;BME280;72099;43.176;76.872;2024-03-08T01:57:18;89878.44;;;-0.21;62.16
82476;BME280;72099;43.176;76.872;2024-03-08T02:00:20;89883.53;;;-0.16;61.85
82476;BME280;72099;43.176;76.872;2024-03-08T02:03:22;89881.41;;;-0.09;nan
82476;BME280;72099;43.176;76.872;2024-03-08T02:06:23;89883.00;;;0.11;61.45
82476;BME280;72099;43.176;76.872;2024-03-08T02:09:24;89886.97;;;0.27;62.06
82476;BME280;72099;43.176;76.872;2024-03-08T02:12:25;89869.38;;;0.24;60.82
82476;BME280;72099;43.176;76.872;2024-03-08T02:15:26;89894.75;;;0.46;60.88
82476;BME280;72099;43.176;76.872;2024-03-08T02:18:30;89856.13;;;0.31;60.54
82476;BME280;72099;43.176;76.872;2024-03-08T02:21:32;89880.84;;;0.61;60.69
82476;BME280;72099;43.176;76.872;2024-03-08T02:24:34;89888.47;;;0.71;60.22
82476;BME280;72099;43.176;76.872;2024-03-08T02:27:35;89895.19;;;0.72;60.12
82476;BME280;72099;43.176;76.872;2024-03-08T02:30:36;89889.31;;;0.85;60.18
82476;BME280;72099;43.176;76.872;2024-03-08T02:33:37;89890.16;;;0.99;59.50
82476;BME280;72099;43.176;76.872;2024-03-08T02:36:37;89890.28;;;1.08;59.10
82476;BME280;72099;43.176;76.872;2024-03-08T02:39:39;89893.22;;;1.20;59.78
82476;BME280;72099;43.176;76.872;2024-03-08T02:42:39;89887.81;;;1.35;59.35
82476;BME280;72099;43.176;76.872;2024-03-08T02:45:41;89892.59;;;1.61;59.41
82476;BME280;72099;43.176;76.872;2024-03-08T02:48:45;89889.13;;;2.39;58.73
82476;BME280;72099;43.176;76.872;2024-03-08T02:51:47;89892.94;;;3.41;56.80
82476;BME280;72099;43.176;76.872;2024-03-08T02:54:48;89872.75;;;3.92;56.13
82476;BME280;72099;43.176;76.872;2024-03-08T02:57:50;89890.66;;;4.81;54.47
82476;BME280;72099;43.176;76.872;2024-03-08T03:00:51;89867.44;;;5.62;53.22
82476;BME280;72099;43.176;76.872;2024-03-08T03:03:52;89872.16;;;6.80;51.32
82476;BME280;72099;43.176;76.872;2024-03-08T03:06:52;89880.63;;;8.02;48.36
82476;BME280;72099;43.176;76.872;2024-03-08T03:09:53;89879.59;;;9.09;46.27
82476;BME280;72099;43.176;76.872;2024-03-08T03:12:54;89882.56;;;9.60;44.55
82476;BME280;72099;43.176;76.872;2024-03-08T03:15:55;89891.22;;;9.61;43.74
82476;BME280;72099;43.176;76.872;2024-03-08T03:19:15;89897.31;;;9.25;42.84
82476;BME280;72099;43.176;76.872;2024-03-08T03:22:16;89886.25;;;8.82;44.08
82476;BME280;72099;43.176;76.872;2024-03-08T03:25:20;89900.78;;;8.68;44.74
82476;BME280;72099;43.176;76.872;2024-03-08T03:28:25;89898.50;;;8.66;43.46
82476;BME280;72099;43.176;76.872;2024-03-08T03:31:26;89890.84;;;8.61;43.47
82476;BME280;72099;43.176;76.872;2024-03-08T03:34:27;89905.38;;;9.07;42.29
82476;BME280;72099;43.176;76.872;2024-03-08T03:37:29;89901.22;;;9.19;42.05
82476;BME280;72099;43.176;76.872;2024-03-08T03:40:30;89907.25;;;9.19;42.30
82476;BME280;72099;43.176;76.872;2024-03-08T03:43:31;89896.56;;;9.12;41.16
82476;BME280;72099;43.176;76.872;2024-03-08T03:46:33;89910.75;;;9.11;40.25
82476;BME280;72099;43.176;76.872;2024-03-08T03:49:34;89909.78;;;9.15;39.22
82476;BME280;72099;43.176;76.872;2024-03-08T03:52:35;89897.84;;;9.06;39.02
82476;BME280;72099;43.176;76.872;2024-03-08T03:55:37;89902.09;;;9.10;38.19
82476;BME280;72099;43.176;76.872;2024-03-08T03:58:38;89913.00;;;9.37;37.15
82476;BME280;72099;43.176;76.872;2024-03-08T04:01:42;89896.06;;;9.87;36.98
82476;BME280;72099;43.176;76.872;2024-03-08T04:04:43;89913.75;;;10.58;35.81
82476;BME280;72099;43.176;76.872;2024-03-08T04:07:46;89911.63;;;10.63;34.69
82476;BME280;72099;43.176;76.872;2024-03-08T04:10:47;89887.19;;;10.47;33.91
82476;BME280;72099;43.176;76.872;2024-03-08T04:13:48;89913.16;;;10.80;33.97
82476;BME280;72099;43.176;76.872;2024-03-08T04:16:48;89917.25;;;11.09;34.05
82476;BME280;72099;43.176;76.872;2024-03-08T04:19:50;89917.88;;;11.53;32.91
82476;BME280;72099;43.176;76.872;2024-03-08T04:22:51;89909.28;;;11.57;31.68
82476;BME280;72099;43.176;76.872;2024-03-08T04:25:52;89901.38;;;11.57;31.20
82476;BME280;72099;43.176;76.872;2024-03-08T04:28:53;89910.69;;;11.70;30.54
82476;BME280;72099;43.176;76.872;2024-03-08T04:31:54;89913.97;;;11.98;30.01
82476;BME280;72099;43.176;76.872;2024-03-08T04:34:55;89915.16;;;12.01;29.85
82476;BME280;72099;43.176;76.872;2024-03-08T04:37:56;89917.66;;;12.13;29.63
82476;BME280;72099;43.176;76.872;2024-03-08T04:40:58;89916.00;;;12.24;28.92
82476;BME280;72099;43.176;76.872;2024-03-08T04:43:59;89882.41;;;12.02;28.74
82476;BME280;72099;43.176;76.872;2024-03-08T04:47:00;89915.34;;;12.31;29.18
82476;BME280;72099;43.176;76.872;2024-03-08T04:50:01;89923.69;;;12.52;29.48
82476;BME280;72099;43.176;76.872;2024-03-08T04:53:02;89870.88;;;12.29;29.33
82476;BME280;72099;43.176;76.872;2024-03-08T04:56:04;89924.78;;;12.93;28.93
82476;BME280;72099;43.176;76.872;2024-03-08T04:59:07;89857.03;;;12.55;28.50
82476;BME280;72099;43.176;76.872;2024-03-08T05:02:09;89932.63;;;13.13;27.39
82476;BME280;72099;43.176;76.872;2024-03-08T05:05:12;89932.59;;;13.09;27.90
82476;BME280;72099;43.176;76.872;2024-03-08T05:08:13;89934.16;;;13.14;27.67
82476;BME280;72099;43.176;76.872;2024-03-08T05:11:14;89927.97;;;13.03;27.57
82476;BME280;72099;43.176;76.872;2024-03-08T05:14:15;89928.00;;;12.83;27.35
82476;BME280;72099;43.176;76.872;2024-03-08T05:17:20;89922.53;;;12.73;28.00
82476;BME280;72099;43.176;76.872;2024-03-08T05:20:21;89927.94;;;12.80;27.99
82476;BME280;72099;43.176;76.872;2024-03-08T05:23:22;89930.81;;;12.94;27.68
82476;BME280;72099;43.176;76.872;2024-03-08T05:26:23;89918.59;;;12.86;26.90
82476;BME280;72099;43.176;76.872;2024-03-08T05:29:39;89930.41;;;12.92;28.36
82476;BME280;72099;43.176;76.872;2024-03-08T05:32:43;89924.22;;;13.26;27.78
82476;BME280;72099;43.176;76.872;2024-03-08T05:35:45;89906.22;;;13.85;26.92
82476;BME280;72099;43.176;76.872;2024-03-08T05:38:45;89915.00;;;14.53;26.16
82476;BME280;72099;43.176;76.872;2024-03-08T05:41:47;89910.13;;;14.95;26.01
82476;BME280;72099;43.176;76.872;2024-03-08T05:44:48;89913.66;;;15.51;25.07
82476;BME280;72099;43.176;76.872;2024-03-08T05:47:50;89911.78;;;16.13;24.80
82476;BME280;72099;43.176;76.872;2024-03-08T05:50:52;89916.63;;;16.77;24.51
82476;BME280;72099;43.176;76.872;2024-03-08T05:53:53;89907.66;;;17.38;23.84
82476;BME280;72099;43.176;76.872;2024-03-08T05:56:56;89904.59;;;17.54;23.11
82476;BME280;72099;43.176;76.872;2024-03-08T05:59:57;89898.91;;;18.02;22.30
82476;BME280;72099;43.176;76.872;2024-03-08T06:02:58;89897.22;;;18.65;22.46
82476;BME280;72099;43.176;76.872;2024-03-08T06:05:59;89900.41;;;19.15;21.60
82476;BME280;72099;43.176;76.872;2024-03-08T06:09:00;89894.69;;;19.72;21.30
82476;BME280;72099;43.176;76.872;2024-03-08T06:12:01;89896.72;;;20.44;20.69
82476;BME280;72099;43.176;76.872;2024-03-08T06:15:06;89893.16;;;20.54;20.04
82476;BME280;72099;43.176;76.872;2024-03-08T06:18:07;89882.84;;;20.56;20.29
82476;BME280;72099;43.176;76.872;2024-03-08T06:21:11;89811.94;;;20.48;20.32
82476;BME280;72099;43.176;76.872;2024-03-08T06:24:13;89882.31;;;21.56;19.78
82476;BME280;72099;43.176;76.872;2024-03-08T06:27:15;89879.16;;;21.38;20.05
82476;BME280;72099;43.176;76.872;2024-03-08T06:30:18;89890.19;;;21.67;19.52
82476;BME280;72099;43.176;76.872;2024-03-08T06:33:18;89888.03;;;21.82;19.38
82476;BME280;72099;43.176;76.872;2024-03-08T06:36:20;89882.53;;;21.92;18.89
82476;BME280;72099;43.176;76.872;2024-03-08T06:42:48;89830.75;;;21.29;18.85
82476;BME280;72099;43.176;76.872;2024-03-08T06:45:49;89878.81;;;21.36;18.92
82476;BME280;72099;43.176;76.872;2024-03-08T06:48:51;89852.19;;;20.95;19.33
82476;BME280;72099;43.176;76.872;2024-03-08T06:51:52;89888.09;;;20.97;18.72
82476;BME280;72099;43.176;76.872;2024-03-08T06:54:53;89870.56;;;20.62;18.60
82476;BME280;72099;43.176;76.872;2024-03-08T06:58:18;89878.59;;;20.24;19.17
82476;BME280;72099;43.176;76.872;2024-03-08T07:01:19;89890.13;;;19.73;19.48
82476;BME280;72099;43.176;76.872;2024-03-08T07:04:21;89850.72;;;18.80;20.56
82476;BME280;72099;43.176;76.872;2024-03-08T07:07:27;89885.91;;;18.29;21.17
82476;BME280;72099;43.176;76.872;2024-03-08T07:10:30;89882.22;;;17.59;22.02
82476;BME280;72099;43.176;76.872;2024-03-08T07:13:31;89892.44;;;17.18;22.79
82476;BME280;72099;43.176;76.872;2024-03-08T07:16:33;89871.09;;;16.71;23.41
82476;BME280;72099;43.176;76.872;2024-03-08T07:19:35;89875.94;;;16.44;23.82
82476;BME280;72099;43.176;76.872;2024-03-08T07:22:35;89874.66;;;16.13;23.93
82476;BME280;72099;43.176;76.872;2024-03-08T07:25:37;89887.13;;;16.02;24.73
82476;BME280;72099;43.176;76.872;2024-03-08T07:28:39;89870.84;;;16.07;25.11
82476;BME280;72099;43.176;76.872;2024-03-08T07:31:40;89860.97;;;16.04;24.79
82476;BME280;72099;43.176;76.872;2024-03-08T07:34:56;89866.69;;;16.10;24.59
82476;BME280;72099;43.176;76.872;2024-03-08T07:37:57;89859.53;;;16.21;25.28
82476;BME280;72099;43.176;76.872;2024-03-08T07:41:00;89866.06;;;16.48;25.93
82476;BME280;72099;43.176;76.872;2024-03-08T07:44:01;89861.53;;;16.49;25.01
82476;BME280;72099;43.176;76.872;2024-03-08T07:47:04;89844.69;;;16.09;25.15
82476;BME280;72099;43.176;76.872;2024-03-08T07:50:05;89856.81;;;16.10;25.44
82476;BME280;72099;43.176;76.872;2024-03-08T07:53:08;89856.44;;;16.08;25.61
82476;BME280;72099;43.176;76.872;2024-03-08T07:56:10;89851.44;;;15.89;26.37
82476;BME280;72099;43.176;76.872;2024-03-08T07:59:32;89853.25;;;15.78;26.06
82476;BME280;72099;43.176;76.872;2024-03-08T08:02:34;89861.53;;;15.66;26.74
82476;BME280;72099;43.176;76.872;2024-03-08T08:05:35;89852.00;;;15.61;27.17
82476;BME280;72099;43.176;76.872;2024-03-08T08:08:38;89849.66;;;15.52;27.81
82476;BME280;72099;43.176;76.872;2024-03-08T08:11:41;89850.94;;;15.73;26.92
82476;BME280;72099;43.176;76.872;2024-03-08T08:14:43;89827.13;;;15.80;27.30
82476;BME280;72099;43.176;76.872;2024-03-08T08:17:45;89858.06;;;16.34;27.10
82476;BME280;72099;43.176;76.872;2024-03-08T08:20:48;89860.66;;;16.20;26.75
82476;BME280;72099;43.176;76.872;2024-03-08T08:23:49;89834.41;;;15.97;26.46
82476;BME280;72099;43.176;76.872;2024-03-08T08:26:50;89852.94;;;15.90;27.01
82476;BME280;72099;43.176;76.872;2024-03-08T08:29:51;89842.78;;;16.06;26.53
82476;BME280;72099;43.176;76.872;2024-03-08T08:32:53;89852.69;;;16.20;26.48
82476;BME280;72099;43.176;76.872;2024-03-08T08:35:53;89866.69;;;16.13;26.45
82476;BME280;72099;43.176;76.872;2024-03-08T08:38:55;89849.81;;;15.74;26.71
82476;BME280;72099;43.176;76.872;2024-03-08T08:41:58;89860.03;;;15.72;27.52
82476;BME280;72099;43.176;76.872;2024-03-08T08:44:59;89840.16;;;15.48;27.66
82476;BME280;72099;43.176;76.872;2024-03-08T08:48:00;89866.19;;;15.35;27.28
82476;BME280;72099;43.176;76.872;2024-03-08T08:51:02;89866.31;;;15.01;27.63
82476;BME280;72099;43.176;76.872;2024-03-08T08:54:02;89861.69;;;14.91;27.36
82476;BME280;72099;43.176;76.872;2024-03-08T08:57:04;89877.28;;;14.63;27.43
82476;BME280;72099;43.176;76.872;2024-03-08T09:00:08;89879.16;;;14.59;28.24
82476;BME280;72099;43.176;76.872;2024-03-08T09:03:11;89877.28;;;14.59;28.38
82476;BME280;72099;43.176;76.872;2024-03-08T09:06:12;89889.28;;;14.53;28.35
82476;BME280;72099;43.176;76.872;2024-03-08T09:09:13;89898.38;;;14.22;28.60
82476;BME280;72099;43.176;76.872;2024-03-08T09:12:14;89903.25;;;13.90;29.12
82476;BME280;72099;43.176;76.872;2024-03-08T09:15:15;89903.00;;;13.72;29.18
82476;BME280;72099;43.176;76.872;2024-03-08T09:18:21;89906.09;;;13.51;30.07
82476;BME280;72099;43.176;76.872;2024-03-08T09:21:21;89908.59;;;13.18;30.18
82476;BME280;72099;43.176;76.872;2024-03-08T09:24:22;89907.66;;;13.07;30.65
82476;BME280;72099;43.176;76.872;2024-03-08T09:27:23;89908.25;;;13.42;30.56
82476;BME280;72099;43.176;76.872;2024-03-08T09:30:24;89914.94;;;13.36;30.38
82476;BME280;72099;43.176;76.872;2024-03-08T09:33:25;89902.56;;;12.94;30.55
82476;BME280;72099;43.176;76.872;2024-03-08T09:36:27;89913.81;;;13.14;30.54
82476;BME280;72099;43.176;76.872;2024-03-08T09:39:28;89913.81;;;13.14;30.78
82476;BME280;72099;43.176;76.872;2024-03-08T09:42:29;89921.16;;;13.24;31.14
82476;BME280;72099;43.176;76.872;2024-03-08T09:45:32;89924.53;;;13.21;31.02
82476;BME280;72099;43.176;76.872;2024-03-08T09:48:36;89925.72;;;13.05;30.91
82476;BME280;72099;43.176;76.872;2024-03-08T09:51:38;89925.81;;;12.89;31.95
82476;BME280;72099;43.176;76.872;2024-03-08T09:54:41;89917.22;;;12.92;32.58
82476;BME280;72099;43.176;76.872;2024-03-08T09:57:44;89925.72;;;12.82;33.42
82476;BME280;72099;43.176;76.872;2024-03-08T10:01:05;89941.84;;;12.57;34.01
82476;BME280;72099;43.176;76.872;2024-03-08T10:04:06;89934.22;;;12.33;33.48
82476;BME280;72099;43.176;76.872;2024-03-08T10:07:08;89941.88;;;12.19;34.72
82476;BME280;72099;43.176;76.872;2024-03-08T10:10:09;89946.28;;;11.95;35.31
82476;BME280;72099;43.176;76.872;2024-03-08T10:13:13;89943.44;;;11.69;35.61
82476;BME280;72099;43.176;76.872;2024-03-08T10:16:14;89952.72;;;11.31;36.95
82476;BME280;72099;43.176;76.872;2024-03-08T10:22:42;89960.09;;;10.78;37.08
82476;BME280;72099;43.176;76.872;2024-03-08T10:25:45;89959.94;;;10.71;37.06
82476;BME280;72099;43.176;76.872;2024-03-08T10:28:55;89969.06;;;10.61;37.98
82476;BME280;72099;43.176;76.872;2024-03-08T10:31:58;89987.81;;;10.32;38.33
82476;BME280;72099;43.176;76.872;2024-03-08T10:34:59;89982.50;;;10.04;39.11
82476;BME280;72099;43.176;76.872;2024-03-08T10:38:01;89977.09;;;9.72;39.56
82476;BME280;72099;43.176;76.872;2024-03-08T10:41:08;89978.09;;;9.56;39.83
82476;BME280;72099;43.176;76.872;2024-03-08T10:44:32;89976.56;;;9.30;40.80
82476;BME280;72099;43.176;76.872;2024-03-08T10:51:32;90025.41;;;8.98;41.88
82476;BME280;72099;43.176;76.872;2024-03-08T10:54:36;90025.59;;;8.81;42.33
82476;BME280;72099;43.176;76.872;2024-03-08T10:57:40;90038.66;;;8.69;43.01
82476;BME280;72099;43.176;76.872;2024-03-08T11:00:42;90041.22;;;8.56;43.68
82476;BME280;72099;43.176;76.872;2024-03-08T11:03:45;89930.38;;;7.69;43.89
82476;BME280;72099;43.176;76.872;2024-03-08T11:06:50;90055.91;;;8.37;44.23
82476;BME280;72099;43.176;76.872;2024-03-08T11:09:55;90054.84;;;8.29;44.69
82476;BME280;72099;43.176;76.872;2024-03-08T11:12:56;90040.78;;;8.13;45.16
82476;BME280;72099;43.176;76.872;2024-03-08T11:15:59;90060.16;;;8.20;44.64
82476;BME280;72099;43.176;76.872;2024-03-08T11:19:05;90050.06;;;8.10;45.17
82476;BME280;72099;43.176;76.872;2024-03-08T11:22:21;90064.94;;;8.18;44.91
82476;BME280;72099;43.176;76.872;2024-03-08T11:25:41;90070.06;;;8.15;44.95
82476;BME280;72099;43.176;76.872;2024-03-08T11:28:44;90073.13;;;8.17;45.44
82476;BME280;72099;43.176;76.872;2024-03-08T11:31:45;90072.66;;;8.15;45.69
82476;BME280;72099;43.176;76.872;2024-03-08T11:34:46;90073.63;;;8.10;45.30
82476;BME280;72099;43.176;76.872;2024-03-08T11:37:48;90059.50;;;8.03;45.53
82476;BME280;72099;43.176;76.872;2024-03-08T11:40:50;90069.81;;;8.08;45.62
82476;BME280;72099;43.176;76.872;2024-03-08T11:44:03;90073.47;;;8.07;45.18
82476;BME280;72099;43.176;76.872;2024-03-08T11:47:11;90063.34;;;8.05;45.25
82476;BME280;72099;43.176;76.872;2024-03-08T11:50:15;90045.44;;;7.86;45.22
82476;BME280;72099;43.176;76.872;2024-03-08T11:53:16;90064.63;;;7.99;44.37
82476;BME280;72099;43.176;76.872;2024-03-08T11:56:17;90059.69;;;7.97;45.06
82476;BME280;72099;43.176;76.872;2024-03-08T11:59:20;90047.47;;;7.81;44.83
82476;BME280;72099;43.176;76.872;2024-03-08T12:02:21;90054.41;;;7.77;45.17
82476;BME280;72099;43.176;76.872;2024-03-08T12:05:22;90052.03;;;7.63;45.66
82476;BME280;72099;43.176;76.872;2024-03-08T12:08:23;90050.41;;;7.50;46.15
82476;BME280;72099;43.176;76.872;2024-03-08T12:11:24;89962.25;;;6.83;46.62
82476;BME280;72099;43.176;76.872;2024-03-08T12:14:25;90049.53;;;7.37;46.78
82476;BME280;72099;43.176;76.872;2024-03-08T12:17:26;90046.97;;;7.28;46.86
82476;BME280;72099;43.176;76.872;2024-03-08T12:20:49;90045.94;;;7.12;47.32
82476;BME280;72099;43.176;76.872;2024-03-08T12:24:07;90047.81;;;7.03;47.40
82476;BME280;72099;43.176;76.872;2024-03-08T12:27:21;90049.09;;;6.88;48.53
82476;BME280;72099;43.176;76.872;2024-03-08T12:30:24;90053.41;;;6.84;48.71
82476;BME280;72099;43.176;76.872;2024-03-08T12:33:27;90051.31;;;6.69;49.22
82476;BME280;72099;43.176;76.872;2024-03-08T12:36:31;90057.63;;;6.59;49.83
82476;BME280;72099;43.176;76.872;2024-03-08T12:39:32;90049.81;;;6.42;50.01
82476;BME280;72099;43.176;76.872;2024-03-08T12:42:33;90058.72;;;6.24;50.54
82476;BME280;72099;43.176;76.872;2024-03-08T12:45:34;90057.50;;;6.12;51.48
82476;BME280;72099;43.176;76.872;2024-03-08T12:48:35;90029.97;;;5.80;51.28
82476;BME280;72099;43.176;76.872;2024-03-08T12:51:40;90049.00;;;5.81;51.58
82476;BME280;72099;43.176;76.872;2024-03-08T12:54:41;90070.03;;;5.76;52.07
82476;BME280;72099;43.176;76.872;2024-03-08T12:57:43;90048.66;;;5.48;52.15
82476;BME280;72099;43.176;76.872;2024-03-08T13:00:44;90075.78;;;5.47;52.62
82476;BME280;72099;43.176;76.872;2024-03-08T13:03:44;90055.13;;;5.11;53.33
82476;BME280;72099;43.176;76.872;2024-03-08T13:06:46;90082.88;;;5.15;53.47
82476;BME280;72099;43.176;76.872;2024-03-08T13:09:50;90067.31;;;4.93;54.09
82476;BME280;72099;43.176;76.872;2024-03-08T13:12:51;90084.16;;;4.87;54.35
82476;BME280;72099;43.176;76.872;2024-03-08T13:15:53;90089.75;;;4.71;54.55
82476;BME280;72099;43.176;76.872;2024-03-08T13:18:54;90065.78;;;4.38;54.94
82476;BME280;72099;43.176;76.872;2024-03-08T13:21:55;90099.41;;;4.49;55.85
82476;BME280;72099;43.176;76.872;2024-03-08T13:24:57;90085.75;;;4.29;56.28
82476;BME280;72099;43.176;76.872;2024-03-08T13:28:01;90094.22;;;4.12;57.12
82476;BME280;72099;43.176;76.872;2024-03-08T13:31:05;90093.03;;;3.96;57.41
82476;BME280;72099;43.176;76.872;2024-03-08T13:34:10;90104.03;;;3.93;57.42
82476;BME280;72099;43.176;76.872;2024-03-08T13:37:12;90084.03;;;3.66;57.66
82476;BME280;72099;43.176;76.872;2024-03-08T13:40:12;90109.00;;;3.67;58.76
82476;BME280;72099;43.176;76.872;2024-03-08T13:43:19;90116.69;;;3.72;58.36
82476;BME280;72099;43.176;76.872;2024-03-08T13:46:20;90097.72;;;3.58;58.60
82476;BME280;72099;43.176;76.872;2024-03-08T13:49:48;90118.81;;;3.70;58.48
82476;BME280;72099;43.176;76.872;2024-03-08T13:52:51;90110.44;;;3.60;58.48
82476;BME280;72099;43.176;76.872;2024-03-08T13:55:54;90128.81;;;3.63;59.04
82476;BME280;72099;43.176;76.872;2024-03-08T13:58:55;90056.81;;;3.09;58.91
82476;BME280;72099;43.176;76.872;2024-03-08T14:01:59;90133.47;;;3.52;58.92
82476;BME280;72099;43.176;76.872;2024-03-08T14:05:02;90132.00;;;3.33;59.35
82476;BME280;72099;43.176;76.872;2024-03-08T14:08:03;90120.25;;;3.21;59.59
82476;BME280;72099;43.176;76.872;2024-03-08T14:11:05;90109.66;;;3.04;59.54
82476;BME280;72099;43.176;76.872;2024-03-08T14:14:13;90133.13;;;2.99;60.01
82476;BME280;72099;43.176;76.872;2024-03-08T14:17:13;90141.22;;;2.97;60.16
82476;BME280;72099;43.176;76.872;2024-03-08T14:20:17;90139.34;;;2.84;60.79
82476;BME280;72099;43.176;76.872;2024-03-08T14:23:18;90136.28;;;2.82;60.78
82476;BME280;72099;43.176;76.872;2024-03-08T14:26:20;90122.34;;;2.78;60.55
82476;BME280;72099;43.176;76.872;2024-03-08T14:29:43;90130.03;;;2.83;60.41
82476;BME280;72099;43.176;76.872;2024-03-08T14:32:44;90133.50;;;2.79;60.37
82476;BME280;72099;43.176;76.872;2024-03-08T14:35:44;90129.06;;;2.79;60.44
82476;BME280;72099;43.176;76.872;2024-03-08T14:38:47;90109.03;;;2.66;60.62
82476;BME280;72099;43.176;76.872;2024-03-08T14:41:48;90112.09;;;2.68;60.58
82476;BME280;72099;43.176;76.872;2024-03-08T14:44:50;90114.03;;;2.62;60.55
82476;BME280;72099;43.176;76.872;2024-03-08T14:47:52;90086.59;;;2.56;60.50
82476;BME280;72099;43.176;76.872;2024-03-08T14:50:55;90098.06;;;2.69;60.05
82476;BME280;72099;43.176;76.872;2024-03-08T14:53:56;90100.03;;;2.77;59.80
82476;BME280;72099;43.176;76.872;2024-03-08T14:56:57;90094.72;;;2.82;59.40
82476;BME280;72099;43.176;76.872;2024-03-08T14:59:58;90089.72;;;2.86;59.45
82476;BME280;72099;43.176;76.872;2024-03-08T15:03:06;90084.56;;;3.00;58.40
82476;BME280;72099;43.176;76.872;2024-03-08T15:06:07;90081.19;;;3.13;57.63
82476;BME280;72099;43.176;76.872;2024-03-08T15:12:40;90018.72;;;2.63;57.69
82476;BME280;72099;43.176;76.872;2024-03-08T15:15:41;90043.84;;;2.81;57.78
82476;BME280;72099;43.176;76.872;2024-03-08T15:18:44;90076.09;;;3.08;57.21
82476;BME280;72099;43.176;76.872;2024-03-08T15:21:48;90070.00;;;3.12;56.84
82476;BME280;72099;43.176;76.872;2024-03-08T15:24:51;90071.66;;;3.22;56.49
82476;BME280;72099;43.176;76.872;2024-03-08T15:27:52;90050.97;;;3.17;55.99
82476;BME280;72099;43.176;76.872;2024-03-08T15:30:54;90051.56;;;3.14;55.81
82476;BME280;72099;43.176;76.872;2024-03-08T15:33:56;90072.53;;;3.17;56.00
82476;BME280;72099;43.176;76.872;2024-03-08T15:37:07;90068.47;;;3.11;56.15
82476;BME280;72099;43.176;76.872;2024-03-08T15:40:10;90036.44;;;2.88;56.33
82476;BME280;72099;43.176;76.872;2024-03-08T15:43:21;90068.56;;;3.06;56.35
82476;BME280;72099;43.176;76.872;2024-03-08T15:46:22;90075.50;;;2.97;56.57
82476;BME280;72099;43.176;76.872;2024-03-08T15:49:23;90067.50;;;2.93;56.86
82476;BME280;72099;43.176;76.872;2024-03-08T15:52:26;90058.28;;;2.74;56.82
82476;BME280;72099;43.176;76.872;2024-03-08T15:55:27;90072.22;;;2.78;56.96
82476;BME280;72099;43.176;76.872;2024-03-08T15:58:30;90069.03;;;2.67;57.07
82476;BME280;72099;43.176;76.872;2024-03-08T16:01:31;90061.97;;;2.54;57.07
82476;BME280;72099;43.176;76.872;2024-03-08T16:04:33;90073.44;;;2.53;57.05
82476;BME280;72099;43.176;76.872;2024-03-08T16:07:34;90078.91;;;2.51;56.90
82476;BME280;72099;43.176;76.872;2024-03-08T16:10:35;90059.72;;;2.33;56.99
82476;BME280;72099;43.176;76.872;2024-03-08T16:13:36;90076.31;;;2.51;56.79
82476;BME280;72099;43.176;76.872;2024-03-08T16:16:40;90083.97;;;2.43;56.75